Erwin, Tennessee
Current Conditions -  °F | °C
As of 1:35 PM on Thursday 27 Nov 2014 (Local Time) from K0A9 Reporting Station
Light Snow Light Snow  
Wind Chill: 27°   Ceiling: 3700
Heat Index: 34°   Visibility: 10mi
Dew Point: 28°   Wind: 8mph
Humidity: 81%   Direction: 300°WNW
Pressure: 30.18"   Gusts: NA
Location:  36.14°N, 82.42°W
Report Text: K0A9 271835Z AUTO 30007KT 10SM -SN FEW017 SCT031 BKN037 01/M02 A3018 RMK
Loading
Personal Weather Stations






























Interactive Weather Map New forecast layout! Learn more

10-Day Weather Forecast

Advertisements
Track Severe Weather on mobile